sensor_id;sensor_type;location;lat;lon;timestamp;P1;durP1;ratioP1;P2;durP2;ratioP2
23181;SDS011;11759;51.282;6.642;2023-02-28T00:00:19;18.88;;;8.50;;
23181;SDS011;11759;51.282;6.642;2023-02-28T00:02:46;19.58;;;8.40;;
23181;SDS011;11759;51.282;6.642;2023-02-28T00:05:14;20.85;;;9.13;;
23181;SDS011;11759;51.282;6.642;2023-02-28T00:07:42;18.50;;;7.82;;
23181;SDS011;11759;51.282;6.642;2023-02-28T00:10:10;16.27;;;8.30;;
23181;SDS011;11759;51.282;6.642;2023-02-28T00:12:38;20.88;;;8.20;;
23181;SDS011;11759;51.282;6.642;2023-02-28T00:15:06;16.65;;;8.90;;
23181;SDS011;11759;51.282;6.642;2023-02-28T00:20:04;15.57;;;8.32;;
23181;SDS011;11759;51.282;6.642;2023-02-28T00:22:36;16.80;;;8.88;;
23181;SDS011;11759;51.282;6.642;2023-02-28T00:25:08;16.80;;;9.10;;
23181;SDS011;11759;51.282;6.642;2023-02-28T00:27:35;16.25;;;8.63;;
23181;SDS011;11759;51.282;6.642;2023-02-28T00:30:04;19.02;;;8.55;;
23181;SDS011;11759;51.282;6.642;2023-02-28T00:32:31;19.73;;;9.02;;
23181;SDS011;11759;51.282;6.642;2023-02-28T00:35:00;16.50;;;8.98;;
23181;SDS011;11759;51.282;6.642;2023-02-28T00:37:27;15.65;;;9.15;;
23181;SDS011;11759;51.282;6.642;2023-02-28T00:39:55;16.58;;;8.57;;
23181;SDS011;11759;51.282;6.642;2023-02-28T00:42:21;18.98;;;8.88;;
23181;SDS011;11759;51.282;6.642;2023-02-28T00:44:48;24.58;;;8.70;;
23181;SDS011;11759;51.282;6.642;2023-02-28T00:47:15;20.55;;;9.18;;
23181;SDS011;11759;51.282;6.642;2023-02-28T00:49:42;18.45;;;8.38;;
23181;SDS011;11759;51.282;6.642;2023-02-28T00:52:09;16.02;;;8.77;;
23181;SDS011;11759;51.282;6.642;2023-02-28T00:54:36;19.52;;;8.63;;
23181;SDS011;11759;51.282;6.642;2023-02-28T00:57:02;17.67;;;8.63;;
23181;SDS011;11759;51.282;6.642;2023-02-28T00:59:30;14.15;;;8.15;;
23181;SDS011;11759;51.282;6.642;2023-02-28T01:01:57;18.45;;;8.98;;
23181;SDS011;11759;51.282;6.642;2023-02-28T01:04:24;15.20;;;8.25;;
23181;SDS011;11759;51.282;6.642;2023-02-28T01:06:50;18.30;;;8.63;;
23181;SDS011;11759;51.282;6.642;2023-02-28T01:09:17;19.35;;;9.45;;
23181;SDS011;11759;51.282;6.642;2023-02-28T01:11:44;16.33;;;8.65;;
23181;SDS011;11759;51.282;6.642;2023-02-28T01:14:14;20.13;;;8.32;;
23181;SDS011;11759;51.282;6.642;2023-02-28T01:16:41;17.25;;;8.85;;
23181;SDS011;11759;51.282;6.642;2023-02-28T01:19:08;18.55;;;8.65;;
23181;SDS011;11759;51.282;6.642;2023-02-28T01:21:37;15.45;;;8.55;;
23181;SDS011;11759;51.282;6.642;2023-02-28T01:24:04;19.13;;;8.40;;
23181;SDS011;11759;51.282;6.642;2023-02-28T01:26:31;14.52;;;8.18;;
23181;SDS011;11759;51.282;6.642;2023-02-28T01:28:58;19.17;;;8.63;;
23181;SDS011;11759;51.282;6.642;2023-02-28T01:31:25;16.15;;;8.85;;
23181;SDS011;11759;51.282;6.642;2023-02-28T01:33:52;19.88;;;8.23;;
23181;SDS011;11759;51.282;6.642;2023-02-28T01:36:20;16.88;;;8.13;;
23181;SDS011;11759;51.282;6.642;2023-02-28T01:38:48;18.80;;;8.60;;
23181;SDS011;11759;51.282;6.642;2023-02-28T01:41:28;13.88;;;8.13;;
23181;SDS011;11759;51.282;6.642;2023-02-28T01:43:58;14.43;;;7.80;;
23181;SDS011;11759;51.282;6.642;2023-02-28T01:49:17;15.23;;;7.40;;
23181;SDS011;11759;51.282;6.642;2023-02-28T01:51:45;13.63;;;7.45;;
23181;SDS011;11759;51.282;6.642;2023-02-28T01:54:21;16.58;;;7.55;;
23181;SDS011;11759;51.282;6.642;2023-02-28T01:56:51;20.17;;;7.03;;
23181;SDS011;11759;51.282;6.642;2023-02-28T01:59:48;16.80;;;7.38;;
23181;SDS011;11759;51.282;6.642;2023-02-28T02:02:20;15.32;;;7.13;;
23181;SDS011;11759;51.282;6.642;2023-02-28T02:04:55;12.65;;;6.32;;
23181;SDS011;11759;51.282;6.642;2023-02-28T02:07:23;17.00;;;7.13;;
23181;SDS011;11759;51.282;6.642;2023-02-28T02:09:59;17.98;;;7.03;;
23181;SDS011;11759;51.282;6.642;2023-02-28T02:12:32;13.80;;;6.43;;
23181;SDS011;11759;51.282;6.642;2023-02-28T02:15:26;12.63;;;7.18;;
23181;SDS011;11759;51.282;6.642;2023-02-28T02:18:28;13.85;;;6.95;;
23181;SDS011;11759;51.282;6.642;2023-02-28T02:40:18;14.68;;;7.13;;
23181;SDS011;11759;51.282;6.642;2023-02-28T02:48:09;14.68;;;6.60;;
23181;SDS011;11759;51.282;6.642;2023-02-28T02:50:41;20.95;;;7.15;;
23181;SDS011;11759;51.282;6.642;2023-02-28T02:53:24;12.65;;;6.43;;
23181;SDS011;11759;51.282;6.642;2023-02-28T02:55:59;13.05;;;6.18;;
23181;SDS011;11759;51.282;6.642;2023-02-28T02:58:30;12.55;;;6.47;;
23181;SDS011;11759;51.282;6.642;2023-02-28T03:00:59;15.98;;;7.22;;
23181;SDS011;11759;51.282;6.642;2023-02-28T03:03:26;17.75;;;7.15;;
23181;SDS011;11759;51.282;6.642;2023-02-28T03:05:58;14.95;;;7.40;;
23181;SDS011;11759;51.282;6.642;2023-02-28T03:08:26;15.70;;;6.80;;
23181;SDS011;11759;51.282;6.642;2023-02-28T03:10:58;12.88;;;6.53;;
23181;SDS011;11759;51.282;6.642;2023-02-28T03:16:15;13.90;;;7.00;;
23181;SDS011;11759;51.282;6.642;2023-02-28T03:21:34;14.48;;;7.13;;
23181;SDS011;11759;51.282;6.642;2023-02-28T03:26:36;15.77;;;6.95;;
23181;SDS011;11759;51.282;6.642;2023-02-28T03:29:13;13.57;;;6.47;;
23181;SDS011;11759;51.282;6.642;2023-02-28T03:31:44;15.23;;;6.88;;
23181;SDS011;11759;51.282;6.642;2023-02-28T03:34:23;15.63;;;7.05;;
23181;SDS011;11759;51.282;6.642;2023-02-28T03:36:57;14.02;;;7.53;;
23181;SDS011;11759;51.282;6.642;2023-02-28T03:39:45;13.98;;;6.55;;
23181;SDS011;11759;51.282;6.642;2023-02-28T03:44:49;15.38;;;6.40;;
23181;SDS011;11759;51.282;6.642;2023-02-28T03:49:50;12.00;;;6.65;;
23181;SDS011;11759;51.282;6.642;2023-02-28T03:54:48;12.15;;;6.63;;
23181;SDS011;11759;51.282;6.642;2023-02-28T03:57:22;14.25;;;6.90;;
23181;SDS011;11759;51.282;6.642;2023-02-28T04:00:10;9.70;;;5.65;;
23181;SDS011;11759;51.282;6.642;2023-02-28T04:02:41;12.75;;;6.72;;
23181;SDS011;11759;51.282;6.642;2023-02-28T04:05:07;17.40;;;6.93;;
23181;SDS011;11759;51.282;6.642;2023-02-28T04:07:34;13.82;;;6.45;;
23181;SDS011;11759;51.282;6.642;2023-02-28T04:10:01;11.75;;;7.05;;
23181;SDS011;11759;51.282;6.642;2023-02-28T04:12:29;9.63;;;5.55;;
23181;SDS011;11759;51.282;6.642;2023-02-28T04:14:55;18.60;;;6.72;;
23181;SDS011;11759;51.282;6.642;2023-02-28T04:17:22;15.45;;;6.68;;
23181;SDS011;11759;51.282;6.642;2023-02-28T04:19:49;16.48;;;6.75;;
23181;SDS011;11759;51.282;6.642;2023-02-28T04:22:16;10.27;;;5.65;;
23181;SDS011;11759;51.282;6.642;2023-02-28T04:24:44;10.52;;;5.45;;
23181;SDS011;11759;51.282;6.642;2023-02-28T04:27:11;11.43;;;5.75;;
23181;SDS011;11759;51.282;6.642;2023-02-28T04:29:37;11.35;;;5.30;;
23181;SDS011;11759;51.282;6.642;2023-02-28T04:32:04;13.35;;;5.75;;
23181;SDS011;11759;51.282;6.642;2023-02-28T04:34:31;13.02;;;5.93;;
23181;SDS011;11759;51.282;6.642;2023-02-28T04:36:58;14.13;;;5.93;;
23181;SDS011;11759;51.282;6.642;2023-02-28T04:39:42;8.95;;;5.28;;
23181;SDS011;11759;51.282;6.642;2023-02-28T04:42:10;10.80;;;5.40;;
23181;SDS011;11759;51.282;6.642;2023-02-28T04:44:37;10.52;;;5.63;;
23181;SDS011;11759;51.282;6.642;2023-02-28T04:47:04;11.35;;;5.57;;
23181;SDS011;11759;51.282;6.642;2023-02-28T04:49:30;10.02;;;5.10;;
23181;SDS011;11759;51.282;6.642;2023-02-28T04:51:57;15.05;;;5.03;;
23181;SDS011;11759;51.282;6.642;2023-02-28T04:54:24;10.95;;;5.03;;
23181;SDS011;11759;51.282;6.642;2023-02-28T04:56:50;6.93;;;4.78;;
23181;SDS011;11759;51.282;6.642;2023-02-28T04:59:17;8.38;;;5.25;;
23181;SDS011;11759;51.282;6.642;2023-02-28T05:01:47;9.20;;;5.00;;
23181;SDS011;11759;51.282;6.642;2023-02-28T05:04:14;12.88;;;5.10;;
23181;SDS011;11759;51.282;6.642;2023-02-28T05:06:41;10.80;;;5.70;;
23181;SDS011;11759;51.282;6.642;2023-02-28T05:09:08;10.85;;;5.47;;
23181;SDS011;11759;51.282;6.642;2023-02-28T05:11:34;10.45;;;5.28;;
23181;SDS011;11759;51.282;6.642;2023-02-28T05:14:02;11.70;;;5.85;;
23181;SDS011;11759;51.282;6.642;2023-02-28T05:16:30;13.30;;;5.90;;
23181;SDS011;11759;51.282;6.642;2023-02-28T05:18:57;10.57;;;5.65;;
23181;SDS011;11759;51.282;6.642;2023-02-28T05:21:25;13.45;;;6.68;;
23181;SDS011;11759;51.282;6.642;2023-02-28T05:24:04;9.07;;;4.63;;
23181;SDS011;11759;51.282;6.642;2023-02-28T05:26:39;9.98;;;4.90;;
23181;SDS011;11759;51.282;6.642;2023-02-28T05:29:07;9.73;;;5.30;;
23181;SDS011;11759;51.282;6.642;2023-02-28T05:31:34;7.78;;;4.95;;
23181;SDS011;11759;51.282;6.642;2023-02-28T05:34:01;13.07;;;5.80;;
23181;SDS011;11759;51.282;6.642;2023-02-28T05:36:30;13.25;;;5.28;;
23181;SDS011;11759;51.282;6.642;2023-02-28T05:38:57;6.50;;;4.45;;
23181;SDS011;11759;51.282;6.642;2023-02-28T05:41:23;11.52;;;5.22;;
23181;SDS011;11759;51.282;6.642;2023-02-28T05:43:50;10.80;;;4.72;;
23181;SDS011;11759;51.282;6.642;2023-02-28T05:46:16;10.68;;;4.97;;
23181;SDS011;11759;51.282;6.642;2023-02-28T05:48:45;9.70;;;4.78;;
23181;SDS011;11759;51.282;6.642;2023-02-28T05:51:13;8.10;;;5.07;;
23181;SDS011;11759;51.282;6.642;2023-02-28T05:53:39;11.95;;;5.22;;
23181;SDS011;11759;51.282;6.642;2023-02-28T05:56:06;9.13;;;4.50;;
23181;SDS011;11759;51.282;6.642;2023-02-28T05:58:32;11.10;;;5.72;;
23181;SDS011;11759;51.282;6.642;2023-02-28T06:01:18;9.43;;;4.45;;
23181;SDS011;11759;51.282;6.642;2023-02-28T06:06:18;9.10;;;4.85;;
23181;SDS011;11759;51.282;6.642;2023-02-28T06:08:45;12.68;;;5.32;;
23181;SDS011;11759;51.282;6.642;2023-02-28T06:11:12;9.77;;;5.15;;
23181;SDS011;11759;51.282;6.642;2023-02-28T06:13:38;10.23;;;4.90;;
23181;SDS011;11759;51.282;6.642;2023-02-28T06:16:05;8.55;;;4.75;;
23181;SDS011;11759;51.282;6.642;2023-02-28T06:18:32;12.20;;;4.40;;
23181;SDS011;11759;51.282;6.642;2023-02-28T06:20:58;9.93;;;5.53;;
23181;SDS011;11759;51.282;6.642;2023-02-28T06:23:25;12.20;;;4.95;;
23181;SDS011;11759;51.282;6.642;2023-02-28T06:25:52;9.93;;;5.10;;
23181;SDS011;11759;51.282;6.642;2023-02-28T06:28:19;13.00;;;5.70;;
23181;SDS011;11759;51.282;6.642;2023-02-28T06:30:46;10.98;;;5.03;;
23181;SDS011;11759;51.282;6.642;2023-02-28T06:33:12;12.55;;;5.00;;
23181;SDS011;11759;51.282;6.642;2023-02-28T06:35:43;13.75;;;6.03;;
23181;SDS011;11759;51.282;6.642;2023-02-28T06:38:13;16.50;;;5.60;;
23181;SDS011;11759;51.282;6.642;2023-02-28T06:40:40;8.32;;;5.30;;
23181;SDS011;11759;51.282;6.642;2023-02-28T06:43:06;9.93;;;4.95;;
23181;SDS011;11759;51.282;6.642;2023-02-28T06:45:33;11.40;;;5.45;;
23181;SDS011;11759;51.282;6.642;2023-02-28T06:47:59;9.68;;;4.88;;
23181;SDS011;11759;51.282;6.642;2023-02-28T06:50:26;10.93;;;5.65;;
23181;SDS011;11759;51.282;6.642;2023-02-28T06:52:54;13.85;;;5.85;;
23181;SDS011;11759;51.282;6.642;2023-02-28T06:55:21;8.18;;;4.60;;
23181;SDS011;11759;51.282;6.642;2023-02-28T06:57:48;9.77;;;5.50;;
23181;SDS011;11759;51.282;6.642;2023-02-28T07:00:16;16.02;;;5.50;;
23181;SDS011;11759;51.282;6.642;2023-02-28T07:02:43;11.85;;;5.13;;
23181;SDS011;11759;51.282;6.642;2023-02-28T07:05:10;9.10;;;5.15;;
23181;SDS011;11759;51.282;6.642;2023-02-28T07:07:37;9.25;;;4.95;;
23181;SDS011;11759;51.282;6.642;2023-02-28T07:10:06;8.45;;;4.75;;
23181;SDS011;11759;51.282;6.642;2023-02-28T07:12:33;9.52;;;4.60;;
23181;SDS011;11759;51.282;6.642;2023-02-28T07:15:00;8.52;;;5.05;;
23181;SDS011;11759;51.282;6.642;2023-02-28T07:17:27;11.32;;;4.80;;
23181;SDS011;11759;51.282;6.642;2023-02-28T07:19:54;8.27;;;4.88;;
23181;SDS011;11759;51.282;6.642;2023-02-28T07:22:20;13.43;;;5.80;;
23181;SDS011;11759;51.282;6.642;2023-02-28T07:24:47;11.00;;;4.50;;
23181;SDS011;11759;51.282;6.642;2023-02-28T07:27:14;8.13;;;4.88;;
23181;SDS011;11759;51.282;6.642;2023-02-28T07:29:50;17.13;;;5.10;;
23181;SDS011;11759;51.282;6.642;2023-02-28T07:32:16;11.75;;;4.55;;
23181;SDS011;11759;51.282;6.642;2023-02-28T07:34:43;8.02;;;4.18;;
23181;SDS011;11759;51.282;6.642;2023-02-28T07:37:09;8.43;;;4.40;;
23181;SDS011;11759;51.282;6.642;2023-02-28T07:39:36;11.90;;;5.10;;
23181;SDS011;11759;51.282;6.642;2023-02-28T07:42:05;11.80;;;4.82;;
23181;SDS011;11759;51.282;6.642;2023-02-28T07:44:35;12.02;;;4.30;;
23181;SDS011;11759;51.282;6.642;2023-02-28T07:47:09;8.07;;;4.40;;
23181;SDS011;11759;51.282;6.642;2023-02-28T07:49:36;6.32;;;4.15;;
23181;SDS011;11759;51.282;6.642;2023-02-28T07:52:03;6.60;;;4.35;;
23181;SDS011;11759;51.282;6.642;2023-02-28T07:54:30;8.85;;;4.65;;
23181;SDS011;11759;51.282;6.642;2023-02-28T07:56:58;9.00;;;4.47;;
23181;SDS011;11759;51.282;6.642;2023-02-28T07:59:24;8.07;;;4.75;;
23181;SDS011;11759;51.282;6.642;2023-02-28T08:01:51;9.77;;;4.22;;
23181;SDS011;11759;51.282;6.642;2023-02-28T08:04:18;10.60;;;4.45;;
23181;SDS011;11759;51.282;6.642;2023-02-28T08:06:44;14.50;;;5.13;;
23181;SDS011;11759;51.282;6.642;2023-02-28T08:09:11;9.82;;;4.70;;
23181;SDS011;11759;51.282;6.642;2023-02-28T08:11:38;6.93;;;3.72;;
23181;SDS011;11759;51.282;6.642;2023-02-28T08:14:04;11.75;;;4.35;;
23181;SDS011;11759;51.282;6.642;2023-02-28T08:16:31;11.73;;;4.70;;
23181;SDS011;11759;51.282;6.642;2023-02-28T08:18:57;7.28;;;4.82;;
23181;SDS011;11759;51.282;6.642;2023-02-28T08:21:24;9.02;;;4.30;;
23181;SDS011;11759;51.282;6.642;2023-02-28T08:23:51;7.88;;;4.78;;
23181;SDS011;11759;51.282;6.642;2023-02-28T08:26:18;8.90;;;4.57;;
23181;SDS011;11759;51.282;6.642;2023-02-28T08:28:45;10.02;;;4.50;;
23181;SDS011;11759;51.282;6.642;2023-02-28T08:31:12;10.68;;;4.53;;
23181;SDS011;11759;51.282;6.642;2023-02-28T08:33:40;9.35;;;4.18;;
23181;SDS011;11759;51.282;6.642;2023-02-28T08:36:08;7.25;;;4.38;;
23181;SDS011;11759;51.282;6.642;2023-02-28T08:38:35;8.60;;;4.32;;
23181;SDS011;11759;51.282;6.642;2023-02-28T08:41:03;8.50;;;4.28;;
23181;SDS011;11759;51.282;6.642;2023-02-28T08:43:33;7.75;;;4.20;;
23181;SDS011;11759;51.282;6.642;2023-02-28T08:46:00;8.10;;;4.22;;
23181;SDS011;11759;51.282;6.642;2023-02-28T08:48:28;7.60;;;4.18;;
23181;SDS011;11759;51.282;6.642;2023-02-28T08:53:32;9.50;;;4.18;;
23181;SDS011;11759;51.282;6.642;2023-02-28T08:56:00;12.38;;;4.28;;
23181;SDS011;11759;51.282;6.642;2023-02-28T08:58:28;6.40;;;4.13;;
23181;SDS011;11759;51.282;6.642;2023-02-28T09:00:55;8.10;;;3.90;;
23181;SDS011;11759;51.282;6.642;2023-02-28T09:03:22;5.50;;;3.80;;
23181;SDS011;11759;51.282;6.642;2023-02-28T09:08:20;6.70;;;3.90;;
23181;SDS011;11759;51.282;6.642;2023-02-28T09:10:47;8.35;;;3.97;;
23181;SDS011;11759;51.282;6.642;2023-02-28T09:13:14;8.80;;;3.53;;
23181;SDS011;11759;51.282;6.642;2023-02-28T09:15:40;8.00;;;4.35;;
23181;SDS011;11759;51.282;6.642;2023-02-28T09:18:07;6.72;;;3.83;;
23181;SDS011;11759;51.282;6.642;2023-02-28T09:20:33;5.63;;;3.67;;
23181;SDS011;11759;51.282;6.642;2023-02-28T09:23:00;7.93;;;3.95;;
23181;SDS011;11759;51.282;6.642;2023-02-28T09:25:27;8.18;;;3.25;;
23181;SDS011;11759;51.282;6.642;2023-02-28T09:27:53;5.80;;;3.70;;
23181;SDS011;11759;51.282;6.642;2023-02-28T09:30:20;5.88;;;3.70;;
23181;SDS011;11759;51.282;6.642;2023-02-28T09:32:46;7.45;;;3.92;;
23181;SDS011;11759;51.282;6.642;2023-02-28T09:37:44;6.53;;;3.38;;
23181;SDS011;11759;51.282;6.642;2023-02-28T09:40:11;3.47;;;2.47;;
23181;SDS011;11759;51.282;6.642;2023-02-28T09:42:38;6.75;;;2.92;;
23181;SDS011;11759;51.282;6.642;2023-02-28T09:45:06;6.68;;;3.30;;
23181;SDS011;11759;51.282;6.642;2023-02-28T09:47:46;5.65;;;3.00;;
23181;SDS011;11759;51.282;6.642;2023-02-28T09:52:52;4.22;;;2.70;;
23181;SDS011;11759;51.282;6.642;2023-02-28T09:58:15;4.78;;;2.53;;
23181;SDS011;11759;51.282;6.642;2023-02-28T10:00:47;7.10;;;3.17;;
23181;SDS011;11759;51.282;6.642;2023-02-28T10:03:46;4.25;;;2.90;;
23181;SDS011;11759;51.282;6.642;2023-02-28T10:06:17;4.40;;;2.97;;
23181;SDS011;11759;51.282;6.642;2023-02-28T10:09:02;4.60;;;2.40;;
23181;SDS011;11759;51.282;6.642;2023-02-28T10:11:32;9.85;;;2.90;;
23181;SDS011;11759;51.282;6.642;2023-02-28T10:14:04;6.93;;;2.60;;
23181;SDS011;11759;51.282;6.642;2023-02-28T10:16:43;7.53;;;3.03;;
23181;SDS011;11759;51.282;6.642;2023-02-28T10:21:46;8.23;;;3.20;;
23181;SDS011;11759;51.282;6.642;2023-02-28T10:24:21;4.35;;;2.90;;
23181;SDS011;11759;51.282;6.642;2023-02-28T10:26:56;8.07;;;2.40;;
23181;SDS011;11759;51.282;6.642;2023-02-28T10:29:27;6.05;;;2.88;;
23181;SDS011;11759;51.282;6.642;2023-02-28T10:31:56;5.65;;;2.88;;
23181;SDS011;11759;51.282;6.642;2023-02-28T10:34:23;3.30;;;2.70;;
23181;SDS011;11759;51.282;6.642;2023-02-28T10:36:50;6.95;;;3.40;;
23181;SDS011;11759;51.282;6.642;2023-02-28T10:42:04;5.00;;;2.70;;
23181;SDS011;11759;51.282;6.642;2023-02-28T10:44:31;7.07;;;3.05;;
23181;SDS011;11759;51.282;6.642;2023-02-28T10:46:58;4.57;;;2.75;;
23181;SDS011;11759;51.282;6.642;2023-02-28T10:49:27;5.32;;;2.80;;
23181;SDS011;11759;51.282;6.642;2023-02-28T10:51:56;5.72;;;2.78;;
23181;SDS011;11759;51.282;6.642;2023-02-28T10:59:46;3.83;;;2.60;;
23181;SDS011;11759;51.282;6.642;2023-02-28T11:02:31;4.40;;;2.67;;
23181;SDS011;11759;51.282;6.642;2023-02-28T11:05:21;3.13;;;2.50;;
23181;SDS011;11759;51.282;6.642;2023-02-28T11:07:55;7.00;;;2.83;;
23181;SDS011;11759;51.282;6.642;2023-02-28T11:10:24;5.85;;;3.00;;
23181;SDS011;11759;51.282;6.642;2023-02-28T11:12:56;6.57;;;2.90;;
23181;SDS011;11759;51.282;6.642;2023-02-28T11:15:29;7.13;;;3.13;;
23181;SDS011;11759;51.282;6.642;2023-02-28T11:21:15;3.90;;;2.70;;
23181;SDS011;11759;51.282;6.642;2023-02-28T11:23:45;3.53;;;2.35;;
23181;SDS011;11759;51.282;6.642;2023-02-28T11:26:12;5.03;;;2.70;;
23181;SDS011;11759;51.282;6.642;2023-02-28T11:29:12;7.05;;;3.08;;
23181;SDS011;11759;51.282;6.642;2023-02-28T11:34:43;4.53;;;2.67;;
23181;SDS011;11759;51.282;6.642;2023-02-28T11:37:14;4.53;;;2.50;;
23181;SDS011;11759;51.282;6.642;2023-02-28T11:39:43;7.05;;;2.75;;
23181;SDS011;11759;51.282;6.642;2023-02-28T11:42:18;8.02;;;2.72;;
23181;SDS011;11759;51.282;6.642;2023-02-28T11:47:38;4.18;;;2.85;;
23181;SDS011;11759;51.282;6.642;2023-02-28T11:56:24;7.75;;;2.90;;
23181;SDS011;11759;51.282;6.642;2023-02-28T12:07:24;4.95;;;2.67;;
23181;SDS011;11759;51.282;6.642;2023-02-28T12:12:42;3.83;;;2.40;;
23181;SDS011;11759;51.282;6.642;2023-02-28T12:23:56;5.65;;;2.45;;
23181;SDS011;11759;51.282;6.642;2023-02-28T12:26:43;6.93;;;2.75;;
23181;SDS011;11759;51.282;6.642;2023-02-28T12:31:42;6.22;;;2.33;;
23181;SDS011;11759;51.282;6.642;2023-02-28T12:34:14;4.45;;;2.88;;
23181;SDS011;11759;51.282;6.642;2023-02-28T12:36:44;4.93;;;2.58;;
23181;SDS011;11759;51.282;6.642;2023-02-28T12:42:17;6.60;;;2.70;;
23181;SDS011;11759;51.282;6.642;2023-02-28T12:44:52;5.95;;;2.95;;
23181;SDS011;11759;51.282;6.642;2023-02-28T12:47:21;5.43;;;2.70;;
23181;SDS011;11759;51.282;6.642;2023-02-28T12:49:49;5.22;;;2.83;;
23181;SDS011;11759;51.282;6.642;2023-02-28T12:52:21;4.47;;;3.13;;
23181;SDS011;11759;51.282;6.642;2023-02-28T12:54:52;5.13;;;2.85;;
23181;SDS011;11759;51.282;6.642;2023-02-28T12:57:35;5.13;;;2.63;;
23181;SDS011;11759;51.282;6.642;2023-02-28T13:00:14;3.58;;;2.53;;
23181;SDS011;11759;51.282;6.642;2023-02-28T13:02:48;4.20;;;2.60;;
23181;SDS011;11759;51.282;6.642;2023-02-28T13:11:05;6.88;;;3.22;;
23181;SDS011;11759;51.282;6.642;2023-02-28T13:13:45;5.93;;;2.65;;
23181;SDS011;11759;51.282;6.642;2023-02-28T13:16:11;3.88;;;2.72;;
23181;SDS011;11759;51.282;6.642;2023-02-28T13:18:39;4.75;;;2.50;;
23181;SDS011;11759;51.282;6.642;2023-02-28T13:21:10;3.55;;;2.90;;
23181;SDS011;11759;51.282;6.642;2023-02-28T13:26:22;4.30;;;3.08;;
23181;SDS011;11759;51.282;6.642;2023-02-28T13:31:21;3.88;;;2.95;;
23181;SDS011;11759;51.282;6.642;2023-02-28T13:38:45;6.40;;;3.35;;
23181;SDS011;11759;51.282;6.642;2023-02-28T13:46:28;9.15;;;3.33;;
23181;SDS011;11759;51.282;6.642;2023-02-28T13:48:56;4.20;;;3.00;;
23181;SDS011;11759;51.282;6.642;2023-02-28T13:51:36;7.50;;;3.25;;
23181;SDS011;11759;51.282;6.642;2023-02-28T14:02:44;5.80;;;2.90;;
23181;SDS011;11759;51.282;6.642;2023-02-28T14:05:32;6.38;;;3.35;;
23181;SDS011;11759;51.282;6.642;2023-02-28T14:08:16;6.55;;;3.15;;
23181;SDS011;11759;51.282;6.642;2023-02-28T14:10:45;4.88;;;3.42;;
23181;SDS011;11759;51.282;6.642;2023-02-28T14:16:12;7.22;;;3.92;;
23181;SDS011;11759;51.282;6.642;2023-02-28T14:18:41;7.45;;;3.63;;
23181;SDS011;11759;51.282;6.642;2023-02-28T14:21:22;7.40;;;3.22;;
23181;SDS011;11759;51.282;6.642;2023-02-28T14:38:06;6.20;;;3.88;;
23181;SDS011;11759;51.282;6.642;2023-02-28T14:40:49;6.38;;;3.17;;
23181;SDS011;11759;51.282;6.642;2023-02-28T14:43:21;6.75;;;3.15;;
23181;SDS011;11759;51.282;6.642;2023-02-28T14:45:50;8.80;;;3.70;;
23181;SDS011;11759;51.282;6.642;2023-02-28T14:48:18;6.80;;;4.10;;
23181;SDS011;11759;51.282;6.642;2023-02-28T14:50:49;6.63;;;3.85;;
23181;SDS011;11759;51.282;6.642;2023-02-28T14:53:18;5.38;;;3.78;;
23181;SDS011;11759;51.282;6.642;2023-02-28T14:55:48;7.82;;;3.70;;
23181;SDS011;11759;51.282;6.642;2023-02-28T14:58:24;12.18;;;3.55;;
23181;SDS011;11759;51.282;6.642;2023-02-28T15:00:53;5.15;;;3.47;;
23181;SDS011;11759;51.282;6.642;2023-02-28T15:03:23;5.25;;;3.95;;
23181;SDS011;11759;51.282;6.642;2023-02-28T15:06:12;8.82;;;3.90;;
23181;SDS011;11759;51.282;6.642;2023-02-28T15:11:35;5.72;;;3.83;;
23181;SDS011;11759;51.282;6.642;2023-02-28T15:14:04;4.47;;;3.58;;
23181;SDS011;11759;51.282;6.642;2023-02-28T15:16:32;6.05;;;3.65;;
23181;SDS011;11759;51.282;6.642;2023-02-28T15:19:02;8.27;;;4.60;;
23181;SDS011;11759;51.282;6.642;2023-02-28T15:22:07;5.47;;;3.80;;
23181;SDS011;11759;51.282;6.642;2023-02-28T15:24:47;6.90;;;3.78;;
23181;SDS011;11759;51.282;6.642;2023-02-28T15:27:23;5.47;;;3.70;;
23181;SDS011;11759;51.282;6.642;2023-02-28T15:29:57;6.07;;;4.25;;
23181;SDS011;11759;51.282;6.642;2023-02-28T15:32:35;6.05;;;3.78;;
23181;SDS011;11759;51.282;6.642;2023-02-28T15:35:18;6.65;;;4.07;;
23181;SDS011;11759;51.282;6.642;2023-02-28T15:37:48;7.15;;;4.40;;
23181;SDS011;11759;51.282;6.642;2023-02-28T15:40:23;8.60;;;4.30;;
23181;SDS011;11759;51.282;6.642;2023-02-28T15:45:32;8.13;;;4.10;;
23181;SDS011;11759;51.282;6.642;2023-02-28T15:48:05;9.20;;;4.43;;
23181;SDS011;11759;51.282;6.642;2023-02-28T15:50:54;5.25;;;4.07;;
23181;SDS011;11759;51.282;6.642;2023-02-28T15:53:24;7.40;;;4.45;;
23181;SDS011;11759;51.282;6.642;2023-02-28T15:58:46;6.90;;;4.20;;
23181;SDS011;11759;51.282;6.642;2023-02-28T16:04:05;5.50;;;4.28;;
23181;SDS011;11759;51.282;6.642;2023-02-28T16:06:44;5.28;;;4.03;;
23181;SDS011;11759;51.282;6.642;2023-02-28T16:09:12;6.13;;;4.50;;
23181;SDS011;11759;51.282;6.642;2023-02-28T16:11:49;8.18;;;4.13;;
23181;SDS011;11759;51.282;6.642;2023-02-28T16:14:25;9.93;;;4.30;;
23181;SDS011;11759;51.282;6.642;2023-02-28T16:17:02;6.50;;;3.97;;
23181;SDS011;11759;51.282;6.642;2023-02-28T16:19:30;5.55;;;3.95;;
23181;SDS011;11759;51.282;6.642;2023-02-28T16:22:00;13.95;;;4.72;;
23181;SDS011;11759;51.282;6.642;2023-02-28T16:24:27;9.00;;;4.55;;
23181;SDS011;11759;51.282;6.642;2023-02-28T16:26:55;8.95;;;4.50;;
23181;SDS011;11759;51.282;6.642;2023-02-28T16:32:07;7.38;;;4.75;;
23181;SDS011;11759;51.282;6.642;2023-02-28T16:34:34;7.20;;;5.07;;
23181;SDS011;11759;51.282;6.642;2023-02-28T16:37:01;7.75;;;5.20;;
23181;SDS011;11759;51.282;6.642;2023-02-28T16:39:27;10.57;;;4.75;;
23181;SDS011;11759;51.282;6.642;2023-02-28T16:41:54;10.30;;;4.45;;
23181;SDS011;11759;51.282;6.642;2023-02-28T16:44:28;9.75;;;4.43;;
23181;SDS011;11759;51.282;6.642;2023-02-28T16:46:56;7.50;;;4.05;;
23181;SDS011;11759;51.282;6.642;2023-02-28T16:49:24;7.25;;;4.80;;
23181;SDS011;11759;51.282;6.642;2023-02-28T16:51:51;6.50;;;4.13;;
23181;SDS011;11759;51.282;6.642;2023-02-28T16:54:18;14.75;;;4.90;;
23181;SDS011;11759;51.282;6.642;2023-02-28T16:56:45;5.25;;;3.80;;
23181;SDS011;11759;51.282;6.642;2023-02-28T16:59:13;7.63;;;4.72;;
23181;SDS011;11759;51.282;6.642;2023-02-28T17:04:11;7.05;;;5.13;;
23181;SDS011;11759;51.282;6.642;2023-02-28T17:06:38;7.75;;;4.95;;
23181;SDS011;11759;51.282;6.642;2023-02-28T17:09:04;7.30;;;4.65;;
23181;SDS011;11759;51.282;6.642;2023-02-28T17:11:31;8.10;;;5.32;;
23181;SDS011;11759;51.282;6.642;2023-02-28T17:13:58;9.38;;;4.65;;
23181;SDS011;11759;51.282;6.642;2023-02-28T17:19:01;11.15;;;5.25;;
23181;SDS011;11759;51.282;6.642;2023-02-28T17:21:31;9.35;;;4.55;;
23181;SDS011;11759;51.282;6.642;2023-02-28T17:23:59;6.47;;;4.65;;
23181;SDS011;11759;51.282;6.642;2023-02-28T17:26:26;8.57;;;4.70;;
23181;SDS011;11759;51.282;6.642;2023-02-28T17:28:55;8.82;;;4.60;;
23181;SDS011;11759;51.282;6.642;2023-02-28T17:31:24;11.65;;;5.20;;
23181;SDS011;11759;51.282;6.642;2023-02-28T17:33:52;11.68;;;5.47;;
23181;SDS011;11759;51.282;6.642;2023-02-28T17:36:21;7.35;;;5.15;;
23181;SDS011;11759;51.282;6.642;2023-02-28T17:38:51;5.50;;;3.88;;
23181;SDS011;11759;51.282;6.642;2023-02-28T17:41:19;11.77;;;5.68;;
23181;SDS011;11759;51.282;6.642;2023-02-28T17:43:46;11.73;;;5.50;;
23181;SDS011;11759;51.282;6.642;2023-02-28T17:46:19;10.07;;;5.70;;
23181;SDS011;11759;51.282;6.642;2023-02-28T17:48:47;8.30;;;5.25;;
23181;SDS011;11759;51.282;6.642;2023-02-28T17:51:15;10.02;;;6.28;;
23181;SDS011;11759;51.282;6.642;2023-02-28T17:53:42;10.80;;;5.80;;
23181;SDS011;11759;51.282;6.642;2023-02-28T17:56:13;9.85;;;5.57;;
23181;SDS011;11759;51.282;6.642;2023-02-28T17:58:41;10.80;;;5.38;;